Wall, SD

2:15 AM MDT on July 25, 2014 (GMT -0600)
Rapid City WFO (KUNR) Elev 3369 ft | 44.07 °N, 103.20 °W | Change Station
Active Advisory: Wind Advisory

Current weather conditions updated 1085 days ago

Clear
Clear
64 °F
Feels Like 64 °F
N
17
Wind Variable Wind from NW
Gusts 24 mph

Today is forecast to be Cooler than yesterday.

Today
High -- | Low -- °F
--% Chance of Precip.
Yesterday
High -- | Low -- °F
Precip. -- in
5:29 AM 8:20 PM
Waning Crescent, 2% visible
Pressure 29.97 in
Visibility -9999.0 miles
Clouds
Dew Point 55 °F
Humidity 72%
Rainfall 0.00 in
Snow Depth Not available.
UV Not available.
Pollen 6.90 out of 12
Air Quality Not available.
Flu Activity Not available.
METAR KUNR 041434Z AUTO 33008KT 20/16 A3002 RMK A01 SLP148 T02000161

More Conditions Fewer Conditions

Pressure 29.97 in
Visibility -9999.0 miles
Clouds
Dew Point 55 °F
Humidity 72%
Rainfall 0.00 in
Snow Depth Not available.
UV Not available.
Pollen 6.90 out of 12
Air Quality Not available.
Flu Activity Not available.
METAR KUNR 041434Z AUTO 33008KT 20/16 A3002 RMK A01 SLP148 T02000161

More Conditions Fewer Conditions

10-Day Weather Forecast

Almanac

Astronomy

Jul. 25, 2014 Rise Set
Actual Time 5:29 AM MDT 8:20 PM MDT
Civil Twilight 4:55 AM MDT 8:54 PM MDT
Nautical Twilight 4:13 AM MDT 9:36 PM MDT
Astronomical Twilight 3:22 AM MDT 10:26 PM MDT
Moon 4:32 AM MDT 7:16 PM MDT
Length of Visible Light 15h 58m
Length of Day
14h 50m
Tomorrow will be 2m 4s shorter.
Waning Crescent, 2% of the Moon is Illuminated
Today
Waning Crescent
Jul 26
New
Aug 3
First Quarter
Aug 10
Full
Aug 17
Last Quarter

Today's Extremes

State Highs State Lows

Community

WunderPhotos

Upload Photos

1,737,273 photos uploaded!

Nearby

Snow Depth

Station Depth Elevation
North Rapid Creek 0 in 6130 ft
Blind Park 0 in 6890 ft

Earthquake Activity

City Distance Mag. Time & Date
No recent earthquake activity has been reported nearby.
Minimum magnitude displayed is 2.5.

Coastal Water Temperatures

Place Temperature
No Stations Reporting

Nearby Weather Stations

Station Location Temp. Dew Point Humidity Wind Precip. Elev Updated Type
RAWS PINNACLES SD, Wall, SD 70 °F 59 °F 67% West  at  12 mph 0.00 in / hr 3080 ft 1:20 AM MDT MADIS

Show More Stations Show Fewer Stations